createdAt,value
2023-04-27T00:01:00.073Z,92765.69
2023-04-27T00:03:26.895Z,92759.69
2023-04-27T00:05:53.678Z,92753.34
2023-04-27T00:08:20.127Z,92759.69
2023-04-27T00:10:46.543Z,92756.34
2023-04-27T00:13:12.983Z,92750.34
2023-04-27T00:15:39.497Z,92742.91
2023-04-27T00:18:06.178Z,92744.56
2023-04-27T00:20:33.808Z,92746.63
2023-04-27T00:23:00.223Z,92741.63
2023-04-27T00:25:26.703Z,92739.72
2023-04-27T00:27:53.218Z,92736.41
2023-04-27T00:30:19.875Z,92735.91
2023-04-27T00:32:46.348Z,92737.75
2023-04-27T00:35:16.270Z,92735.38
2023-04-27T00:37:42.710Z,92731.66
2023-04-27T00:40:09.518Z,92735.63
2023-04-27T00:42:36.534Z,92716.75
2023-04-27T00:45:04.062Z,92722.97
2023-04-27T00:47:30.931Z,92720.84
2023-04-27T00:49:57.471Z,92722.66
2023-04-27T00:52:25.993Z,92724.97
2023-04-27T00:54:53.640Z,92726.06
2023-04-27T00:57:21.323Z,92720.34
2023-04-27T00:59:47.811Z,92727.22
2023-04-27T01:02:14.898Z,92727.53
2023-04-27T01:04:41.526Z,92728.06
2023-04-27T01:07:08.152Z,92732.75
2023-04-27T01:09:34.637Z,92729.09
2023-04-27T01:12:01.289Z,92717.56
2023-04-27T01:14:27.769Z,92720.94
2023-04-27T01:16:54.433Z,92722.56
2023-04-27T01:19:20.979Z,92726.50
2023-04-27T01:21:47.396Z,92723.88
2023-04-27T01:24:13.887Z,92729.97
2023-04-27T01:26:40.541Z,92723.66
2023-04-27T01:29:07.072Z,92726.25
2023-04-27T01:31:33.556Z,92725.47
2023-04-27T01:34:00.208Z,92717.88
2023-04-27T01:36:27.636Z,92724.69
2023-04-27T01:38:55.781Z,92725.19
2023-04-27T01:41:22.238Z,92723.56
2023-04-27T01:43:48.634Z,92723.34
2023-04-27T01:46:15.824Z,92726.75
2023-04-27T01:48:42.365Z,92728.34
2023-04-27T01:51:10.938Z,92732.22
2023-04-27T01:53:37.418Z,92729.28
2023-04-27T01:56:04.031Z,92736.09
2023-04-27T01:58:32.812Z,92729.81
2023-04-27T02:00:59.351Z,92732.44
2023-04-27T02:03:26.167Z,92726.94
2023-04-27T02:05:52.911Z,92721.69
2023-04-27T02:08:19.389Z,92728.50
2023-04-27T02:10:45.937Z,92730.31
2023-04-27T02:13:12.500Z,92729.75
2023-04-27T02:15:38.925Z,92729.75
2023-04-27T02:18:05.644Z,92733.97
2023-04-27T02:20:33.150Z,92735.53
2023-04-27T02:23:02.179Z,92742.34
2023-04-27T02:25:28.985Z,92741.03
2023-04-27T02:27:55.914Z,92735.00
2023-04-27T02:30:23.043Z,92728.50
2023-04-27T02:32:50.055Z,92729.75
2023-04-27T02:35:16.730Z,92737.06
2023-04-27T02:37:43.436Z,92740.38
2023-04-27T02:40:11.532Z,92743.25
2023-04-27T02:42:41.108Z,92742.22
2023-04-27T02:45:11.501Z,92752.91
2023-04-27T02:47:38.179Z,92744.91
2023-04-27T02:50:06.021Z,92741.50
2023-04-27T02:52:34.415Z,92746.47
2023-04-27T02:55:01.128Z,92746.41
2023-04-27T02:57:28.409Z,92742.78
2023-04-27T02:59:54.880Z,92744.91
2023-04-27T03:02:21.476Z,92741.03
2023-04-27T03:04:53.465Z,92742.91
2023-04-27T03:07:20.019Z,92740.28
2023-04-27T03:09:46.455Z,92745.50
2023-04-27T03:12:12.871Z,92734.75
2023-04-27T03:14:39.452Z,92738.09
2023-04-27T03:17:05.945Z,92737.59
2023-04-27T03:19:32.553Z,92744.97
2023-04-27T03:21:59.298Z,92743.94
2023-04-27T03:24:25.894Z,92744.47
2023-04-27T03:26:52.469Z,92730.84
2023-04-27T03:29:21.196Z,92737.97
2023-04-27T03:31:47.864Z,92740.84
2023-04-27T03:34:14.606Z,92738.47
2023-04-27T03:36:41.403Z,92737.13
2023-04-27T03:39:09.972Z,92738.25
2023-04-27T03:41:36.649Z,92738.78
2023-04-27T03:44:03.513Z,92734.59
2023-04-27T03:46:30.191Z,92738.31
2023-04-27T03:48:56.957Z,92731.00
2023-04-27T03:51:24.427Z,92735.19
2023-04-27T03:53:50.961Z,92735.69
2023-04-27T03:56:19.044Z,92737.22
2023-04-27T03:58:46.824Z,92740.59
2023-04-27T04:01:21.926Z,92747.66
2023-04-27T04:03:50.706Z,92751.06
2023-04-27T04:06:17.807Z,92748.97
2023-04-27T04:08:45.796Z,92746.69
2023-04-27T04:11:12.817Z,92745.88
2023-04-27T04:13:39.662Z,92752.41
2023-04-27T04:16:08.815Z,92747.19
2023-04-27T04:18:37.022Z,92742.72
2023-04-27T04:21:04.777Z,92751.44
2023-04-27T04:23:32.852Z,92749.34
2023-04-27T04:25:59.849Z,92749.03
2023-04-27T04:28:31.097Z,92744.63
2023-04-27T04:30:59.118Z,92745.44
2023-04-27T04:33:26.496Z,92737.00
2023-04-27T04:35:53.807Z,92739.94
2023-04-27T04:38:21.749Z,92745.44
2023-04-27T04:40:48.952Z,92737.31
2023-04-27T04:43:15.607Z,92745.16
2023-04-27T04:45:42.681Z,92737.88
2023-04-27T04:48:10.313Z,92741.28
2023-04-27T04:50:37.143Z,92736.84
2023-04-27T04:53:03.887Z,92745.78
2023-04-27T04:55:31.564Z,92746.34
2023-04-27T04:57:58.355Z,92740.84
2023-04-27T05:00:28.013Z,92754.25
2023-04-27T05:02:54.720Z,92749.31
2023-04-27T05:05:21.454Z,92754.84
2023-04-27T05:07:47.966Z,92752.31
2023-04-27T05:10:14.641Z,92758.00
2023-04-27T05:12:41.414Z,92751.50
2023-04-27T05:15:08.529Z,92745.78
2023-04-27T05:17:35.151Z,92745.38
2023-04-27T05:20:01.845Z,92748.75
2023-04-27T05:22:28.479Z,92750.88
2023-04-27T05:24:55.870Z,92754.63
2023-04-27T05:27:22.546Z,92755.94
2023-04-27T05:29:49.256Z,92762.50
2023-04-27T05:32:15.728Z,92762.25
2023-04-27T05:34:45.663Z,92767.06
2023-04-27T05:37:13.988Z,92765.59
2023-04-27T05:39:40.890Z,92757.81
2023-04-27T05:42:07.385Z,92753.34
2023-04-27T05:44:33.839Z,92761.75
2023-04-27T05:47:00.454Z,92758.69
2023-04-27T05:49:27.129Z,92765.56
2023-04-27T05:51:53.606Z,92766.66
2023-04-27T05:54:20.331Z,92769.34
2023-04-27T05:56:47.121Z,92778.31
2023-04-27T05:59:13.754Z,92772.88
2023-04-27T06:01:40.334Z,92767.69
2023-04-27T06:04:07.218Z,92775.34
2023-04-27T06:06:35.422Z,92777.75
2023-04-27T06:09:02.117Z,92779.13
2023-04-27T06:11:28.569Z,92784.94
2023-04-27T06:13:55.210Z,92785.03
2023-04-27T06:16:21.958Z,92784.03
2023-04-27T06:18:50.538Z,92793.50
2023-04-27T06:21:18.044Z,92804.81
2023-04-27T06:23:44.801Z,92795.16
2023-04-27T06:26:11.719Z,92795.97
2023-04-27T06:28:38.424Z,92794.13
2023-04-27T06:31:06.433Z,92804.69
2023-04-27T06:33:33.341Z,92809.13
2023-04-27T06:36:01.266Z,92819.72
2023-04-27T06:38:27.759Z,92824.72
2023-04-27T06:40:54.195Z,92822.72
2023-04-27T06:43:20.687Z,92823.81
2023-04-27T06:45:47.220Z,92817.81
2023-04-27T06:48:13.776Z,92824.44
2023-04-27T06:50:40.471Z,92824.22
2023-04-27T06:53:06.933Z,92819.28
2023-04-27T06:55:33.367Z,92818.56
2023-04-27T06:57:59.899Z,92816.91
2023-04-27T07:00:27.029Z,92812.72
2023-04-27T07:02:53.572Z,92811.44
2023-04-27T07:05:20.250Z,92817.75
2023-04-27T07:07:46.681Z,92806.25
2023-04-27T07:10:13.136Z,92815.19
2023-04-27T07:12:40.206Z,92811.00
2023-04-27T07:15:07.493Z,92818.91
2023-04-27T07:17:34.017Z,92818.13
2023-04-27T07:20:05.876Z,92813.38
2023-04-27T07:22:33.035Z,92811.53
2023-04-27T07:24:59.514Z,92816.28
2023-04-27T07:27:26.588Z,92807.56
2023-04-27T07:29:53.387Z,92806.75
2023-04-27T07:32:19.935Z,92799.91
2023-04-27T07:34:53.641Z,92801.53
2023-04-27T07:37:21.736Z,92802.56
2023-04-27T07:39:54.634Z,92800.97
2023-04-27T07:42:25.009Z,92796.78
2023-04-27T07:44:52.359Z,92806.50
2023-04-27T07:47:18.894Z,92807.31
2023-04-27T07:49:46.281Z,92805.44
2023-04-27T07:52:12.714Z,92801.72
2023-04-27T07:54:39.816Z,92801.69
2023-04-27T07:57:11.441Z,92805.09
2023-04-27T07:59:38.200Z,92810.34
2023-04-27T08:02:18.275Z,92801.84
2023-04-27T08:04:46.638Z,92804.41
2023-04-27T08:07:14.126Z,92804.44
2023-04-27T08:09:40.752Z,92808.72
2023-04-27T08:12:07.279Z,92805.53
2023-04-27T08:14:36.776Z,92816.53
2023-04-27T08:17:03.404Z,92813.44
2023-04-27T08:19:30.027Z,92816.06
2023-04-27T08:21:56.694Z,92813.47
2023-04-27T08:24:23.154Z,92803.38
2023-04-27T08:26:49.642Z,92811.25
2023-04-27T08:29:27.194Z,92818.16
2023-04-27T08:31:57.157Z,92814.94
2023-04-27T08:34:24.032Z,92815.97
2023-04-27T08:36:50.648Z,92812.25
2023-04-27T08:39:18.028Z,92809.13
2023-04-27T08:41:44.649Z,92807.03
2023-04-27T08:44:11.111Z,92795.00
2023-04-27T08:46:38.606Z,92799.72
2023-04-27T08:49:06.428Z,92811.22
2023-04-27T08:51:33.376Z,92805.19
2023-04-27T08:54:00.128Z,92800.28
2023-04-27T08:56:28.253Z,92796.19
2023-04-27T08:58:56.226Z,92797.38
2023-04-27T09:01:24.391Z,92794.66
2023-04-27T09:04:02.300Z,92797.16
2023-04-27T09:06:31.525Z,92808.66
2023-04-27T09:08:58.106Z,92801.56
2023-04-27T09:11:35.960Z,92797.19
2023-04-27T09:14:15.640Z,92798.56
2023-04-27T09:16:43.287Z,92800.50
2023-04-27T09:19:10.032Z,92801.91
2023-04-27T09:21:36.482Z,92810.22
2023-04-27T09:24:13.763Z,92811.66
2023-04-27T09:26:42.737Z,92807.25
2023-04-27T09:29:09.378Z,92810.69
2023-04-27T09:31:36.459Z,92809.63
2023-04-27T09:34:03.807Z,92814.34
2023-04-27T09:36:32.294Z,92821.06
2023-04-27T09:38:59.059Z,92824.47
2023-04-27T09:41:26.604Z,92820.84
2023-04-27T09:43:57.006Z,92817.94
2023-04-27T09:46:25.796Z,92821.59
2023-04-27T09:48:52.929Z,92812.59
2023-04-27T09:51:19.365Z,92807.16
2023-04-27T09:53:51.581Z,92815.94
2023-04-27T09:56:44.418Z,92814.06
2023-04-27T09:59:26.794Z,92812.72
2023-04-27T10:02:01.371Z,92814.50
2023-04-27T10:04:34.604Z,92812.09
2023-04-27T10:07:07.542Z,92813.69
2023-04-27T10:09:41.377Z,92820.16
2023-04-27T10:12:28.304Z,92811.03
2023-04-27T10:15:11.108Z,92813.97
2023-04-27T10:17:37.824Z,92806.59
2023-04-27T10:20:07.391Z,92807.25
2023-04-27T10:22:49.966Z,92810.03
2023-04-27T10:25:17.805Z,92804.78
2023-04-27T10:27:48.729Z,92804.91
2023-04-27T10:30:18.159Z,92807.84
2023-04-27T10:32:58.540Z,92806.25
2023-04-27T10:35:55.742Z,92809.00
2023-04-27T10:38:28.684Z,92820.59
2023-04-27T10:41:03.365Z,92815.91
2023-04-27T10:43:32.142Z,92815.38
2023-04-27T10:46:13.194Z,92814.19
2023-04-27T10:48:43.894Z,92816.19
2023-04-27T10:51:15.376Z,92812.91
2023-04-27T10:53:42.079Z,92810.06
2023-04-27T10:56:08.689Z,92812.00
2023-04-27T10:58:48.197Z,92815.00
2023-04-27T11:01:25.802Z,92815.69
2023-04-27T11:03:59.825Z,92813.66
2023-04-27T11:06:28.396Z,92807.06
2023-04-27T11:08:54.970Z,92805.19
2023-04-27T11:11:22.542Z,92808.28
2023-04-27T11:13:49.822Z,92805.78
2023-04-27T11:16:16.809Z,92808.72
2023-04-27T11:18:43.292Z,92804.38
2023-04-27T11:21:14.985Z,92798.06
2023-04-27T11:23:42.250Z,92802.44
2023-04-27T11:26:22.127Z,92804.38
2023-04-27T11:29:05.456Z,92816.66
2023-04-27T11:31:49.327Z,92810.97
2023-04-27T11:34:23.982Z,92806.38
2023-04-27T11:39:38.952Z,92800.03
2023-04-27T11:42:16.965Z,92795.31
2023-04-27T11:44:43.578Z,92798.88
2023-04-27T11:47:18.851Z,92792.44
2023-04-27T11:49:49.673Z,92798.81
2023-04-27T11:52:16.631Z,92791.03
2023-04-27T11:54:52.881Z,92790.63
2023-04-27T11:57:30.833Z,92788.22
2023-04-27T12:00:00.118Z,92794.28
2023-04-27T12:02:27.959Z,92789.78
2023-04-27T12:04:55.044Z,92791.88
2023-04-27T12:07:21.659Z,92791.34
2023-04-27T12:09:48.636Z,92796.81
2023-04-27T12:12:18.169Z,92791.19
2023-04-27T12:14:45.312Z,92790.63
2023-04-27T12:17:11.984Z,92782.13
2023-04-27T12:19:38.475Z,92781.34
2023-04-27T12:22:05.368Z,92781.66
2023-04-27T12:24:32.299Z,92783.88
2023-04-27T12:26:59.415Z,92776.44
2023-04-27T12:29:25.840Z,92774.59
2023-04-27T12:31:53.213Z,92785.81
2023-04-27T12:34:19.786Z,92775.69
2023-04-27T12:36:46.968Z,92776.22
2023-04-27T12:39:19.671Z,92784.16
2023-04-27T12:41:47.766Z,92779.47
2023-04-27T12:44:15.336Z,92786.25
2023-04-27T12:46:43.206Z,92784.03
2023-04-27T12:49:11.116Z,92784.25
2023-04-27T12:51:37.720Z,92786.97
2023-04-27T12:54:04.701Z,92789.72
2023-04-27T12:56:31.347Z,92785.03
2023-04-27T12:58:58.330Z,92782.84
2023-04-27T13:01:27.558Z,92779.28
2023-04-27T13:03:55.787Z,92775.81
2023-04-27T13:06:22.840Z,92775.63
2023-04-27T13:08:50.860Z,92780.66
2023-04-27T13:11:18.329Z,92788.19
2023-04-27T13:13:45.794Z,92786.47
2023-04-27T13:16:12.988Z,92783.22
2023-04-27T13:18:40.630Z,92783.09
2023-04-27T13:21:08.364Z,92785.75
2023-04-27T13:23:34.813Z,92775.13
2023-04-27T13:26:01.467Z,92775.31
2023-04-27T13:28:27.949Z,92771.97
2023-04-27T13:30:54.511Z,92776.16
2023-04-27T13:33:23.509Z,92773.66
2023-04-27T13:35:51.246Z,92772.75
2023-04-27T13:38:17.777Z,92776.94
2023-04-27T13:40:44.340Z,92775.97
2023-04-27T13:43:10.968Z,92773.81
2023-04-27T13:45:37.432Z,92777.34
2023-04-27T13:48:04.041Z,92774.38
2023-04-27T13:50:30.602Z,92778.19
2023-04-27T13:52:57.097Z,92773.13
2023-04-27T13:55:23.752Z,92776.75
2023-04-27T13:57:50.376Z,92770.50
2023-04-27T14:00:17.076Z,92763.75
2023-04-27T14:02:43.738Z,92766.09
2023-04-27T14:05:10.397Z,92763.59
2023-04-27T14:07:36.957Z,92763.28
2023-04-27T14:10:04.423Z,92759.69
2023-04-27T14:12:34.107Z,92761.25
2023-04-27T14:15:00.652Z,92767.66
2023-04-27T14:17:27.075Z,92766.38
2023-04-27T14:19:53.502Z,92765.41
2023-04-27T14:22:19.947Z,92765.03
2023-04-27T14:24:46.519Z,92771.47
2023-04-27T14:27:12.962Z,92760.84
2023-04-27T14:29:39.438Z,92760.66
2023-04-27T14:32:06.316Z,92757.09
2023-04-27T14:34:32.942Z,92754.63
2023-04-27T14:36:59.394Z,92752.34
2023-04-27T14:39:28.053Z,92753.84
2023-04-27T14:41:54.568Z,92755.94
2023-04-27T14:44:21.041Z,92750.84
2023-04-27T14:46:47.508Z,92747.53
2023-04-27T14:49:14.270Z,92746.03
2023-04-27T14:51:43.355Z,92746.31
2023-04-27T14:54:10.050Z,92756.41
2023-04-27T14:56:36.552Z,92750.78
2023-04-27T14:59:03.158Z,92750.63
2023-04-27T15:01:29.684Z,92753.81
2023-04-27T15:03:57.823Z,92747.50
2023-04-27T15:06:28.112Z,92747.63
2023-04-27T15:08:55.289Z,92752.69
2023-04-27T15:11:22.060Z,92743.00
2023-04-27T15:13:48.874Z,92747.84
2023-04-27T15:16:15.559Z,92746.66
2023-04-27T15:18:42.288Z,92744.00
2023-04-27T15:21:08.771Z,92739.78
2023-04-27T15:23:37.071Z,92742.13
2023-04-27T15:26:03.619Z,92728.97
2023-04-27T15:28:30.263Z,92738.34
2023-04-27T15:30:56.782Z,92731.22
2023-04-27T15:33:23.308Z,92725.16
2023-04-27T15:35:50.016Z,92730.59
2023-04-27T15:38:17.830Z,92730.22
2023-04-27T15:40:44.359Z,92731.84
2023-04-27T15:43:10.948Z,92732.63
2023-04-27T15:45:37.564Z,92727.38
2023-04-27T15:48:04.315Z,92731.03
2023-04-27T15:50:30.919Z,92729.94
2023-04-27T15:52:57.391Z,92717.72
2023-04-27T15:55:24.152Z,92722.09
2023-04-27T15:57:50.700Z,92722.88
2023-04-27T16:00:18.843Z,92718.19
2023-04-27T16:02:46.341Z,92705.63
2023-04-27T16:05:13.054Z,92714.25
2023-04-27T16:07:39.874Z,92707.03
2023-04-27T16:10:07.299Z,92707.06
2023-04-27T16:12:33.818Z,92698.78
2023-04-27T16:15:00.843Z,92701.22
2023-04-27T16:17:29.020Z,92694.13
2023-04-27T16:19:55.560Z,92691.84
2023-04-27T16:22:22.268Z,92692.28
2023-04-27T16:24:48.859Z,92695.50
2023-04-27T16:27:17.145Z,92691.88
2023-04-27T16:29:43.710Z,92699.03
2023-04-27T16:32:10.962Z,92695.56
2023-04-27T16:34:38.099Z,92693.19
2023-04-27T16:37:05.871Z,92694.03
2023-04-27T16:39:32.788Z,92697.47
2023-04-27T16:41:59.236Z,92696.97
2023-04-27T16:44:26.153Z,92692.09
2023-04-27T16:46:52.683Z,92694.81
2023-04-27T16:49:19.154Z,92695.94
2023-04-27T16:51:45.681Z,92700.91
2023-04-27T16:54:12.704Z,92699.38
2023-04-27T16:56:39.155Z,92693.28
2023-04-27T16:59:05.962Z,92695.56
2023-04-27T17:01:32.466Z,92685.50
2023-04-27T17:04:02.225Z,92684.75
2023-04-27T17:06:29.925Z,92687.63
2023-04-27T17:08:57.502Z,92692.84
2023-04-27T17:11:24.262Z,92699.41
2023-04-27T17:13:50.868Z,92693.03
2023-04-27T17:16:18.678Z,92688.28
2023-04-27T17:18:46.917Z,92689.94
2023-04-27T17:21:13.828Z,92693.13
2023-04-27T17:23:43.123Z,92687.13
2023-04-27T17:26:10.599Z,92696.09
2023-04-27T17:28:37.084Z,92691.97
2023-04-27T17:31:03.601Z,92688.41
2023-04-27T17:33:30.243Z,92697.03
2023-04-27T17:35:56.737Z,92701.34
2023-04-27T17:38:23.179Z,92703.31
2023-04-27T17:40:49.646Z,92704.44
2023-04-27T17:43:16.224Z,92708.47
2023-04-27T17:45:42.809Z,92706.69
2023-04-27T17:48:09.282Z,92713.00
2023-04-27T17:50:37.468Z,92716.63
2023-04-27T17:53:03.928Z,92712.97
2023-04-27T17:55:30.340Z,92726.28
2023-04-27T17:57:56.755Z,92731.28
2023-04-27T18:00:23.388Z,92716.97
2023-04-27T18:02:50.149Z,92713.25
2023-04-27T18:05:17.238Z,92725.22
2023-04-27T18:07:46.112Z,92726.22
2023-04-27T18:10:12.915Z,92718.78
2023-04-27T18:12:39.354Z,92716.84
2023-04-27T18:15:09.347Z,92722.56
2023-04-27T18:17:36.467Z,92721.34
2023-04-27T18:20:09.423Z,92708.19
2023-04-27T18:22:38.368Z,92709.38
2023-04-27T18:25:05.205Z,92709.19
2023-04-27T18:27:32.781Z,92708.44
2023-04-27T18:29:59.333Z,92710.31
2023-04-27T18:32:25.854Z,92707.75
2023-04-27T18:34:52.423Z,92701.56
2023-04-27T18:37:18.861Z,92698.34
2023-04-27T18:39:45.317Z,92697.91
2023-04-27T18:42:11.764Z,92700.84
2023-04-27T18:44:38.227Z,92699.63
2023-04-27T18:47:04.749Z,92695.59
2023-04-27T18:49:31.186Z,92695.78
2023-04-27T18:51:57.641Z,92702.53
2023-04-27T18:54:24.071Z,92712.13
2023-04-27T18:56:52.970Z,92710.38
2023-04-27T18:59:20.234Z,92712.06
2023-04-27T19:01:46.870Z,92712.84
2023-04-27T19:04:14.473Z,92721.06
2023-04-27T19:06:41.118Z,92721.94
2023-04-27T19:09:09.113Z,92723.78
2023-04-27T19:11:35.986Z,92723.31
2023-04-27T19:14:02.438Z,92729.19
2023-04-27T19:16:29.005Z,92730.06
2023-04-27T19:18:55.544Z,92727.72
2023-04-27T19:21:21.977Z,92730.16
2023-04-27T19:23:48.468Z,92727.56
2023-04-27T19:26:15.056Z,92721.84
2023-04-27T19:28:41.539Z,92722.66
2023-04-27T19:31:08.351Z,92721.63
2023-04-27T19:33:34.949Z,92728.00
2023-04-27T19:36:01.486Z,92722.22
2023-04-27T19:38:27.912Z,92724.91
2023-04-27T19:40:54.339Z,92723.38
2023-04-27T19:43:20.884Z,92726.25
2023-04-27T19:45:49.303Z,92732.59
2023-04-27T19:48:16.087Z,92736.84
2023-04-27T19:50:43.635Z,92731.56
2023-04-27T19:53:10.839Z,92728.47
2023-04-27T19:55:37.781Z,92730.59
2023-04-27T19:58:04.221Z,92724.50
2023-04-27T20:00:30.689Z,92722.97
2023-04-27T20:02:57.200Z,92718.25
2023-04-27T20:05:24.407Z,92720.38
2023-04-27T20:07:51.047Z,92723.81
2023-04-27T20:10:17.616Z,92713.03
2023-04-27T20:12:54.331Z,92717.00
2023-04-27T20:15:22.372Z,92721.22
2023-04-27T20:17:48.802Z,92718.34
2023-04-27T20:20:15.323Z,92710.97
2023-04-27T20:22:41.821Z,92710.22
2023-04-27T20:25:08.651Z,92712.56
2023-04-27T20:27:35.629Z,92713.09
2023-04-27T20:30:02.358Z,92718.09
2023-04-27T20:32:28.821Z,92708.41
2023-04-27T20:34:55.280Z,92706.03
2023-04-27T20:37:23.066Z,92708.41
2023-04-27T20:39:49.517Z,92709.22
2023-04-27T20:42:16.077Z,92716.31
2023-04-27T20:44:42.560Z,92722.13
2023-04-27T20:47:09.002Z,92709.47
2023-04-27T20:49:35.875Z,92701.59
2023-04-27T20:52:03.034Z,92701.91
2023-04-27T20:54:32.789Z,92699.00
2023-04-27T20:57:01.765Z,92692.94
2023-04-27T20:59:28.147Z,92689.50
2023-04-27T21:01:54.561Z,92702.13
2023-04-27T21:04:21.261Z,92693.22
2023-04-27T21:06:47.913Z,92700.59
2023-04-27T21:09:14.333Z,92705.06
2023-04-27T21:11:40.930Z,92704.00
2023-04-27T21:14:07.397Z,92708.47
2023-04-27T21:16:33.894Z,92707.44
2023-04-27T21:19:00.379Z,92715.84
2023-04-27T21:21:26.983Z,92711.66
2023-04-27T21:24:04.092Z,92713.75
2023-04-27T21:26:34.221Z,92701.13
2023-04-27T21:29:01.327Z,92703.50
2023-04-27T21:31:27.782Z,92701.91
2023-04-27T21:33:54.210Z,92702.72
2023-04-27T21:36:20.608Z,92695.09
2023-04-27T21:38:47.218Z,92692.47
2023-04-27T21:41:13.659Z,92688.78
2023-04-27T21:43:42.017Z,92699.56
2023-04-27T21:46:09.176Z,92695.09
2023-04-27T21:48:36.161Z,92690.13
2023-04-27T21:51:02.876Z,92680.91
2023-04-27T21:53:30.355Z,92688.00
2023-04-27T21:55:57.130Z,92676.97
2023-04-27T21:58:24.221Z,92670.94
2023-04-27T22:00:50.836Z,92667.25
2023-04-27T22:03:17.746Z,92663.84
2023-04-27T22:05:45.262Z,92657.56
2023-04-27T22:08:12.126Z,92649.91
2023-04-27T22:10:38.687Z,92645.97
2023-04-27T22:13:17.781Z,92652.03
2023-04-27T22:15:45.819Z,92642.03
2023-04-27T22:18:14.221Z,92644.41
2023-04-27T22:20:40.736Z,92636.00
2023-04-27T22:23:07.627Z,92634.44
2023-04-27T22:25:34.073Z,92635.22
2023-04-27T22:28:01.502Z,92626.53
2023-04-27T22:30:28.818Z,92634.16
2023-04-27T22:32:56.273Z,92638.88
2023-04-27T22:35:27.248Z,92639.16
2023-04-27T22:37:59.022Z,92642.81
2023-04-27T22:40:25.885Z,92642.28
2023-04-27T22:42:53.381Z,92651.72
2023-04-27T22:45:19.868Z,92650.69
2023-04-27T22:47:46.476Z,92649.09
2023-04-27T22:50:13.406Z,92641.75
2023-04-27T22:52:42.156Z,92644.91
2023-04-27T22:55:09.923Z,92639.38
2023-04-27T22:57:36.695Z,92646.47
2023-04-27T23:00:05.356Z,92650.94
2023-04-27T23:02:32.345Z,92644.38
2023-04-27T23:04:59.096Z,92650.66
2023-04-27T23:07:25.562Z,92638.06
2023-04-27T23:09:52.736Z,92637.53
2023-04-27T23:12:20.651Z,92635.72
2023-04-27T23:14:47.174Z,92634.13
2023-04-27T23:17:15.431Z,92638.06
2023-04-27T23:19:41.988Z,92638.84
2023-04-27T23:22:08.455Z,92633.34
2023-04-27T23:24:34.891Z,92626.00
2023-04-27T23:27:01.383Z,92626.50
2023-04-27T23:29:27.867Z,92614.41
2023-04-27T23:31:54.367Z,92612.59
2023-04-27T23:34:20.767Z,92612.59
2023-04-27T23:36:47.317Z,92613.91
2023-04-27T23:39:13.754Z,92616.53
2023-04-27T23:41:40.164Z,92620.19
2023-04-27T23:44:06.844Z,92610.75
2023-04-27T23:46:33.999Z,92606.03
2023-04-27T23:49:00.507Z,92609.94
2023-04-27T23:51:27.136Z,92609.94
2023-04-27T23:53:53.547Z,92613.38
2023-04-27T23:56:20.117Z,92612.56
2023-04-27T23:58:46.571Z,92607.31
